createdAt,value
2022-08-24T00:03:12.656Z,16.84
2022-08-24T00:14:19.448Z,16.77
2022-08-24T00:25:19.259Z,16.55
2022-08-24T00:35:56.401Z,16.34
2022-08-24T00:46:32.976Z,16.15
2022-08-24T00:57:31.184Z,16.03
2022-08-24T01:08:08.685Z,16.00
2022-08-24T01:19:07.809Z,15.91
2022-08-24T01:30:05.193Z,15.82
2022-08-24T01:41:06.601Z,15.66
2022-08-24T01:52:07.916Z,15.46
2022-08-24T02:03:10.245Z,15.34
2022-08-24T02:14:10.761Z,15.27
2022-08-24T02:25:11.254Z,15.12
2022-08-24T02:36:25.492Z,15.15
2022-08-24T02:47:19.463Z,15.06
2022-08-24T02:58:21.124Z,15.06
2022-08-24T03:09:23.579Z,14.95
2022-08-24T03:20:23.691Z,14.93
2022-08-24T03:31:25.614Z,14.90
2022-08-24T03:42:29.041Z,14.91
2022-08-24T03:53:29.923Z,14.83
2022-08-24T04:04:31.947Z,14.69
2022-08-24T04:15:34.050Z,14.75
2022-08-24T04:26:44.516Z,14.91
2022-08-24T04:37:40.114Z,14.88
2022-08-24T04:48:40.227Z,14.90
2022-08-24T04:59:43.301Z,15.01
2022-08-24T05:10:45.982Z,15.27
2022-08-24T05:21:44.608Z,15.51
2022-08-24T05:32:22.401Z,15.57
2022-08-24T05:43:25.238Z,15.88
2022-08-24T05:54:25.870Z,16.03
2022-08-24T06:05:27.940Z,16.35
2022-08-24T06:16:31.354Z,16.57
2022-08-24T06:27:34.005Z,16.92
2022-08-24T06:38:36.987Z,17.46
2022-08-24T06:49:38.441Z,17.79
2022-08-24T07:00:37.359Z,18.29
2022-08-24T07:11:39.781Z,18.90
2022-08-24T07:22:41.115Z,19.31
2022-08-24T07:33:39.828Z,19.75
2022-08-24T07:44:38.584Z,20.05
2022-08-24T07:55:28.539Z,21.04
2022-08-24T08:06:06.326Z,22.12
2022-08-24T08:16:49.705Z,23.48
2022-08-24T08:27:51.447Z,23.97
2022-08-24T08:38:47.634Z,24.54
2022-08-24T08:49:30.606Z,24.93
2022-08-24T09:00:28.956Z,25.62
2022-08-24T09:11:30.275Z,25.84
2022-08-24T09:22:27.905Z,25.77
2022-08-24T09:33:27.322Z,25.99
2022-08-24T09:44:27.516Z,26.12
2022-08-24T09:55:28.873Z,26.76
2022-08-24T10:06:02.743Z,27.20
2022-08-24T10:17:01.953Z,27.72
2022-08-24T10:27:35.681Z,27.29
2022-08-24T10:38:37.265Z,27.84
2022-08-24T10:49:39.236Z,28.90
2022-08-24T11:00:38.640Z,28.36
2022-08-24T11:11:40.597Z,29.37
2022-08-24T11:22:30.194Z,28.29
2022-08-24T11:33:29.769Z,28.66
2022-08-24T11:44:32.770Z,32.05
2022-08-24T11:55:41.669Z,31.16
2022-08-24T12:06:32.514Z,29.75
2022-08-24T12:17:29.064Z,29.78
2022-08-24T12:28:16.562Z,30.62
2022-08-24T12:39:19.131Z,32.55
2022-08-24T12:50:16.691Z,32.76
2022-08-24T13:01:15.535Z,32.53
2022-08-24T13:12:11.639Z,30.11
2022-08-24T13:23:10.882Z,29.66
2022-08-24T13:33:51.144Z,32.72
2022-08-24T13:44:54.585Z,36.71
2022-08-24T13:55:55.195Z,32.65
2022-08-24T14:06:51.229Z,29.44
2022-08-24T14:17:46.290Z,28.57
2022-08-24T14:28:50.909Z,31.15
2022-08-24T14:39:59.446Z,33.21
2022-08-24T14:50:59.430Z,32.14
2022-08-24T15:01:51.517Z,29.00
2022-08-24T15:12:46.727Z,27.45
2022-08-24T15:23:20.040Z,24.62
2022-08-24T15:34:13.359Z,22.86
2022-08-24T15:44:46.861Z,22.28
2022-08-24T15:55:45.547Z,22.16
2022-08-24T16:06:38.245Z,21.98
2022-08-24T16:17:13.184Z,21.92
2022-08-24T16:28:12.393Z,21.53
2022-08-24T16:39:08.326Z,21.29
2022-08-24T16:49:58.807Z,21.26
2022-08-24T17:00:33.296Z,21.23
2022-08-24T17:11:33.683Z,21.16
2022-08-24T17:22:34.435Z,21.23
2022-08-24T17:33:34.875Z,20.99
2022-08-24T17:44:33.341Z,21.01
2022-08-24T17:55:39.047Z,20.87
2022-08-24T18:06:37.478Z,20.90
2022-08-24T18:17:13.119Z,20.87
2022-08-24T18:28:07.743Z,20.72
2022-08-24T18:39:08.494Z,20.53
2022-08-24T18:50:03.892Z,20.34
2022-08-24T19:01:05.125Z,20.18
2022-08-24T19:12:04.620Z,20.16
2022-08-24T19:23:04.218Z,20.09
2022-08-24T19:34:06.430Z,20.15
2022-08-24T19:45:06.216Z,19.97
2022-08-24T19:56:08.117Z,19.90
2022-08-24T20:06:43.510Z,19.79
2022-08-24T20:17:41.927Z,19.93
2022-08-24T20:28:41.967Z,19.97
2022-08-24T20:39:42.632Z,19.78
2022-08-24T20:50:44.815Z,19.71
2022-08-24T21:01:45.761Z,19.51
2022-08-24T21:12:45.407Z,19.46
2022-08-24T21:23:47.433Z,19.42
2022-08-24T21:34:46.127Z,19.32
2022-08-24T21:45:46.373Z,19.20
2022-08-24T21:56:45.542Z,19.08
2022-08-24T22:07:45.429Z,19.05
2022-08-24T22:18:44.046Z,18.89
2022-08-24T22:29:44.536Z,18.68
2022-08-24T22:40:45.945Z,18.64
2022-08-24T22:51:46.498Z,18.50
2022-08-24T23:02:43.494Z,18.40
2022-08-24T23:13:42.153Z,18.27
2022-08-24T23:24:39.690Z,18.24
2022-08-24T23:35:38.342Z,18.16
2022-08-24T23:46:15.305Z,18.19
2022-08-24T23:57:02.305Z,18.24
